sensor_id;sensor_type;location;lat;lon;timestamp;temperature;humidity
4451;DHT22;2238;50.180;9.230;2023-04-06T00:02:51;3.30;99.90
4451;DHT22;2238;50.180;9.230;2023-04-06T00:05:52;3.40;99.90
4451;DHT22;2238;50.180;9.230;2023-04-06T00:08:53;3.40;99.90
4451;DHT22;2238;50.180;9.230;2023-04-06T00:11:54;3.30;99.90
4451;DHT22;2238;50.180;9.230;2023-04-06T00:14:55;3.20;99.90
4451;DHT22;2238;50.180;9.230;2023-04-06T00:17:55;3.10;99.90
4451;DHT22;2238;50.180;9.230;2023-04-06T00:20:56;3.20;99.90
4451;DHT22;2238;50.180;9.230;2023-04-06T00:23:57;3.30;99.90
4451;DHT22;2238;50.180;9.230;2023-04-06T00:26:57;3.40;99.90
4451;DHT22;2238;50.180;9.230;2023-04-06T00:29:58;3.40;99.90
4451;DHT22;2238;50.180;9.230;2023-04-06T00:32:58;3.20;99.90
4451;DHT22;2238;50.180;9.230;2023-04-06T00:35:59;3.00;99.90
4451;DHT22;2238;50.180;9.230;2023-04-06T00:39:00;3.00;99.90
4451;DHT22;2238;50.180;9.230;2023-04-06T00:42:07;3.00;99.90
4451;DHT22;2238;50.180;9.230;2023-04-06T00:45:10;3.00;99.90
4451;DHT22;2238;50.180;9.230;2023-04-06T00:48:11;3.00;99.90
4451;DHT22;2238;50.180;9.230;2023-04-06T00:51:12;3.10;99.90
4451;DHT22;2238;50.180;9.230;2023-04-06T00:54:12;3.30;99.90
4451;DHT22;2238;50.180;9.230;2023-04-06T00:57:13;3.30;99.90
4451;DHT22;2238;50.180;9.230;2023-04-06T01:00:14;3.40;99.90
4451;DHT22;2238;50.180;9.230;2023-04-06T01:03:15;3.40;99.90
4451;DHT22;2238;50.180;9.230;2023-04-06T01:06:16;3.30;99.90
4451;DHT22;2238;50.180;9.230;2023-04-06T01:09:17;3.20;99.90
4451;DHT22;2238;50.180;9.230;2023-04-06T01:12:17;3.20;99.90
4451;DHT22;2238;50.180;9.230;2023-04-06T01:15:19;2.90;99.90
4451;DHT22;2238;50.180;9.230;2023-04-06T01:18:26;3.10;99.90
4451;DHT22;2238;50.180;9.230;2023-04-06T01:21:27;3.20;99.90
4451;DHT22;2238;50.180;9.230;2023-04-06T01:24:28;3.20;99.90
4451;DHT22;2238;50.180;9.230;2023-04-06T01:27:28;3.20;99.90
4451;DHT22;2238;50.180;9.230;2023-04-06T01:30:30;3.10;99.90
4451;DHT22;2238;50.180;9.230;2023-04-06T01:33:30;3.10;99.90
4451;DHT22;2238;50.180;9.230;2023-04-06T01:36:31;3.20;99.90
4451;DHT22;2238;50.180;9.230;2023-04-06T01:39:32;3.10;99.90
4451;DHT22;2238;50.180;9.230;2023-04-06T01:42:32;3.00;99.90
4451;DHT22;2238;50.180;9.230;2023-04-06T01:45:33;2.80;99.90
4451;DHT22;2238;50.180;9.230;2023-04-06T01:48:33;2.60;99.90
4451;DHT22;2238;50.180;9.230;2023-04-06T01:51:34;2.70;99.90
4451;DHT22;2238;50.180;9.230;2023-04-06T01:54:35;2.80;99.90
4451;DHT22;2238;50.180;9.230;2023-04-06T01:57:35;2.80;99.90
4451;DHT22;2238;50.180;9.230;2023-04-06T02:00:36;2.80;99.90
4451;DHT22;2238;50.180;9.230;2023-04-06T02:03:36;2.90;99.90
4451;DHT22;2238;50.180;9.230;2023-04-06T02:06:37;2.90;99.90
4451;DHT22;2238;50.180;9.230;2023-04-06T02:09:38;2.70;99.90
4451;DHT22;2238;50.180;9.230;2023-04-06T02:12:38;2.80;99.90
4451;DHT22;2238;50.180;9.230;2023-04-06T02:15:39;2.70;99.90
4451;DHT22;2238;50.180;9.230;2023-04-06T02:18:39;2.70;99.90
4451;DHT22;2238;50.180;9.230;2023-04-06T02:21:40;2.60;99.90
4451;DHT22;2238;50.180;9.230;2023-04-06T02:24:41;2.70;99.90
4451;DHT22;2238;50.180;9.230;2023-04-06T02:27:41;2.80;99.90
4451;DHT22;2238;50.180;9.230;2023-04-06T02:30:42;2.70;99.90
4451;DHT22;2238;50.180;9.230;2023-04-06T02:33:42;2.70;99.90
4451;DHT22;2238;50.180;9.230;2023-04-06T02:36:47;2.70;99.90
4451;DHT22;2238;50.180;9.230;2023-04-06T02:39:47;2.60;99.90
4451;DHT22;2238;50.180;9.230;2023-04-06T02:42:48;2.20;99.90
4451;DHT22;2238;50.180;9.230;2023-04-06T02:45:48;2.40;99.90
4451;DHT22;2238;50.180;9.230;2023-04-06T02:48:49;2.40;99.90
4451;DHT22;2238;50.180;9.230;2023-04-06T02:51:50;2.50;99.90
4451;DHT22;2238;50.180;9.230;2023-04-06T02:54:51;2.50;99.90
4451;DHT22;2238;50.180;9.230;2023-04-06T02:57:51;1.70;99.90
4451;DHT22;2238;50.180;9.230;2023-04-06T03:00:52;0.80;99.90
4451;DHT22;2238;50.180;9.230;2023-04-06T03:03:52;0.80;99.90
4451;DHT22;2238;50.180;9.230;2023-04-06T03:06:54;1.00;99.90
4451;DHT22;2238;50.180;9.230;2023-04-06T03:09:55;1.40;99.90
4451;DHT22;2238;50.180;9.230;2023-04-06T03:12:56;1.90;99.90
4451;DHT22;2238;50.180;9.230;2023-04-06T03:15:56;1.90;99.90
4451;DHT22;2238;50.180;9.230;2023-04-06T03:18:57;2.10;99.90
4451;DHT22;2238;50.180;9.230;2023-04-06T03:21:57;2.40;99.90
4451;DHT22;2238;50.180;9.230;2023-04-06T03:24:58;2.30;99.90
4451;DHT22;2238;50.180;9.230;2023-04-06T03:27:58;1.60;99.90
4451;DHT22;2238;50.180;9.230;2023-04-06T03:30:59;1.30;99.90
4451;DHT22;2238;50.180;9.230;2023-04-06T03:34:00;0.90;99.90
4451;DHT22;2238;50.180;9.230;2023-04-06T03:37:00;0.60;99.90
4451;DHT22;2238;50.180;9.230;2023-04-06T03:40:01;0.50;99.90
4451;DHT22;2238;50.180;9.230;2023-04-06T03:43:04;0.30;99.90
4451;DHT22;2238;50.180;9.230;2023-04-06T03:46:04;0.10;99.90
4451;DHT22;2238;50.180;9.230;2023-04-06T03:49:05;0.30;99.90
4451;DHT22;2238;50.180;9.230;2023-04-06T03:52:05;-1.60;99.90
4451;DHT22;2238;50.180;9.230;2023-04-06T03:55:07;0.30;99.90
4451;DHT22;2238;50.180;9.230;2023-04-06T03:58:07;0.30;99.90
4451;DHT22;2238;50.180;9.230;2023-04-06T04:01:08;0.40;99.90
4451;DHT22;2238;50.180;9.230;2023-04-06T04:04:09;0.60;99.90
4451;DHT22;2238;50.180;9.230;2023-04-06T04:07:10;0.20;99.90
4451;DHT22;2238;50.180;9.230;2023-04-06T04:10:10;0.30;99.90
4451;DHT22;2238;50.180;9.230;2023-04-06T04:13:11;0.30;99.90
4451;DHT22;2238;50.180;9.230;2023-04-06T04:16:11;0.50;99.90
4451;DHT22;2238;50.180;9.230;2023-04-06T04:38:09;0.70;99.90
4451;DHT22;2238;50.180;9.230;2023-04-06T04:41:10;0.90;99.90
4451;DHT22;2238;50.180;9.230;2023-04-06T04:44:11;0.50;99.90
4451;DHT22;2238;50.180;9.230;2023-04-06T04:47:11;0.40;99.90
4451;DHT22;2238;50.180;9.230;2023-04-06T04:50:12;0.40;99.90
4451;DHT22;2238;50.180;9.230;2023-04-06T04:53:12;0.80;99.90
4451;DHT22;2238;50.180;9.230;2023-04-06T04:56:13;1.00;99.90
4451;DHT22;2238;50.180;9.230;2023-04-06T04:59:13;1.20;99.90
4451;DHT22;2238;50.180;9.230;2023-04-06T05:02:14;1.50;99.90
4451;DHT22;2238;50.180;9.230;2023-04-06T05:05:15;1.70;99.90
4451;DHT22;2238;50.180;9.230;2023-04-06T05:08:16;1.90;99.90
4451;DHT22;2238;50.180;9.230;2023-04-06T05:11:17;2.00;99.90
4451;DHT22;2238;50.180;9.230;2023-04-06T05:14:17;4.80;99.90
4451;DHT22;2238;50.180;9.230;2023-04-06T05:17:18;2.00;99.90
4451;DHT22;2238;50.180;9.230;2023-04-06T05:20:19;2.00;99.90
4451;DHT22;2238;50.180;9.230;2023-04-06T05:23:20;2.00;99.90
4451;DHT22;2238;50.180;9.230;2023-04-06T05:26:21;1.80;99.90
4451;DHT22;2238;50.180;9.230;2023-04-06T05:29:21;1.80;99.90
4451;DHT22;2238;50.180;9.230;2023-04-06T05:32:23;1.90;99.90
4451;DHT22;2238;50.180;9.230;2023-04-06T05:35:25;2.00;99.90
4451;DHT22;2238;50.180;9.230;2023-04-06T05:38:25;2.00;99.90
4451;DHT22;2238;50.180;9.230;2023-04-06T05:41:26;2.10;99.90
4451;DHT22;2238;50.180;9.230;2023-04-06T05:44:26;2.10;99.90
4451;DHT22;2238;50.180;9.230;2023-04-06T05:47:27;2.20;99.90
4451;DHT22;2238;50.180;9.230;2023-04-06T05:50:28;2.30;99.90
4451;DHT22;2238;50.180;9.230;2023-04-06T05:53:29;2.30;99.90
4451;DHT22;2238;50.180;9.230;2023-04-06T05:56:29;2.40;99.90
4451;DHT22;2238;50.180;9.230;2023-04-06T05:59:32;2.50;99.90
4451;DHT22;2238;50.180;9.230;2023-04-06T06:02:32;2.50;99.90
4451;DHT22;2238;50.180;9.230;2023-04-06T06:05:33;2.60;99.90
4451;DHT22;2238;50.180;9.230;2023-04-06T06:08:33;2.70;99.90
4451;DHT22;2238;50.180;9.230;2023-04-06T06:11:34;2.60;99.90
4451;DHT22;2238;50.180;9.230;2023-04-06T06:14:35;2.40;99.90
4451;DHT22;2238;50.180;9.230;2023-04-06T06:17:35;2.20;99.90
4451;DHT22;2238;50.180;9.230;2023-04-06T06:20:36;2.50;99.90
4451;DHT22;2238;50.180;9.230;2023-04-06T06:23:37;2.80;99.90
4451;DHT22;2238;50.180;9.230;2023-04-06T06:26:37;2.90;99.90
4451;DHT22;2238;50.180;9.230;2023-04-06T06:29:39;3.00;99.90
4451;DHT22;2238;50.180;9.230;2023-04-06T06:32:40;3.10;99.90
4451;DHT22;2238;50.180;9.230;2023-04-06T06:35:40;3.30;99.90
4451;DHT22;2238;50.180;9.230;2023-04-06T06:38:41;3.40;99.90
4451;DHT22;2238;50.180;9.230;2023-04-06T06:41:42;3.40;99.90
4451;DHT22;2238;50.180;9.230;2023-04-06T06:44:42;3.60;99.90
4451;DHT22;2238;50.180;9.230;2023-04-06T06:47:43;4.00;99.90
4451;DHT22;2238;50.180;9.230;2023-04-06T06:50:43;4.00;99.90
4451;DHT22;2238;50.180;9.230;2023-04-06T06:53:44;4.30;99.90
4451;DHT22;2238;50.180;9.230;2023-04-06T06:56:45;4.70;99.90
4451;DHT22;2238;50.180;9.230;2023-04-06T06:59:46;4.70;99.90
4451;DHT22;2238;50.180;9.230;2023-04-06T07:02:47;5.00;99.90
4451;DHT22;2238;50.180;9.230;2023-04-06T07:05:49;4.90;99.90
4451;DHT22;2238;50.180;9.230;2023-04-06T07:08:53;5.10;99.90
4451;DHT22;2238;50.180;9.230;2023-04-06T07:11:54;8.30;99.90
4451;DHT22;2238;50.180;9.230;2023-04-06T07:14:56;5.70;99.90
4451;DHT22;2238;50.180;9.230;2023-04-06T07:17:57;6.00;99.90
4451;DHT22;2238;50.180;9.230;2023-04-06T07:20:57;6.00;99.90
4451;DHT22;2238;50.180;9.230;2023-04-06T07:23:58;6.10;99.90
4451;DHT22;2238;50.180;9.230;2023-04-06T07:26:59;6.30;99.90
4451;DHT22;2238;50.180;9.230;2023-04-06T07:30:00;6.80;99.90
4451;DHT22;2238;50.180;9.230;2023-04-06T07:33:01;9.60;99.90
4451;DHT22;2238;50.180;9.230;2023-04-06T07:36:02;6.70;99.90
4451;DHT22;2238;50.180;9.230;2023-04-06T07:39:02;6.50;99.90
4451;DHT22;2238;50.180;9.230;2023-04-06T07:42:03;9.80;99.90
4451;DHT22;2238;50.180;9.230;2023-04-06T07:45:04;8.00;99.90
4451;DHT22;2238;50.180;9.230;2023-04-06T07:48:05;7.80;99.90
4451;DHT22;2238;50.180;9.230;2023-04-06T07:51:07;7.60;99.90
4451;DHT22;2238;50.180;9.230;2023-04-06T07:54:09;7.90;99.90
4451;DHT22;2238;50.180;9.230;2023-04-06T07:57:09;9.90;99.90
4451;DHT22;2238;50.180;9.230;2023-04-06T08:00:10;9.70;99.90
4451;DHT22;2238;50.180;9.230;2023-04-06T08:03:11;7.60;99.90
4451;DHT22;2238;50.180;9.230;2023-04-06T08:06:12;9.70;99.90
4451;DHT22;2238;50.180;9.230;2023-04-06T08:09:13;10.10;99.90
4451;DHT22;2238;50.180;9.230;2023-04-06T08:12:14;10.50;99.90
4451;DHT22;2238;50.180;9.230;2023-04-06T08:15:14;11.00;99.90
4451;DHT22;2238;50.180;9.230;2023-04-06T08:18:15;9.20;99.90
4451;DHT22;2238;50.180;9.230;2023-04-06T08:21:15;10.60;99.90
4451;DHT22;2238;50.180;9.230;2023-04-06T08:24:16;9.40;99.90
4451;DHT22;2238;50.180;9.230;2023-04-06T08:27:17;9.30;99.90
4451;DHT22;2238;50.180;9.230;2023-04-06T08:30:18;10.60;99.90
4451;DHT22;2238;50.180;9.230;2023-04-06T08:33:19;10.00;99.90
4451;DHT22;2238;50.180;9.230;2023-04-06T08:36:20;9.80;99.90
4451;DHT22;2238;50.180;9.230;2023-04-06T08:39:23;9.80;99.90
4451;DHT22;2238;50.180;9.230;2023-04-06T08:42:26;11.30;99.90
4451;DHT22;2238;50.180;9.230;2023-04-06T08:45:29;11.00;99.90
4451;DHT22;2238;50.180;9.230;2023-04-06T08:48:30;12.10;99.90
4451;DHT22;2238;50.180;9.230;2023-04-06T08:51:30;11.40;99.90
4451;DHT22;2238;50.180;9.230;2023-04-06T08:54:31;9.80;99.90
4451;DHT22;2238;50.180;9.230;2023-04-06T08:57:32;9.90;99.90
4451;DHT22;2238;50.180;9.230;2023-04-06T09:00:38;11.10;99.90
4451;DHT22;2238;50.180;9.230;2023-04-06T09:03:40;11.50;99.90
4451;DHT22;2238;50.180;9.230;2023-04-06T09:06:41;11.20;99.90
4451;DHT22;2238;50.180;9.230;2023-04-06T09:09:42;12.10;99.90
4451;DHT22;2238;50.180;9.230;2023-04-06T09:12:48;12.80;99.90
4451;DHT22;2238;50.180;9.230;2023-04-06T09:16:05;11.90;99.90
4451;DHT22;2238;50.180;9.230;2023-04-06T09:19:10;11.90;99.90
4451;DHT22;2238;50.180;9.230;2023-04-06T09:22:10;12.30;99.90
4451;DHT22;2238;50.180;9.230;2023-04-06T09:25:19;12.40;99.90
4451;DHT22;2238;50.180;9.230;2023-04-06T09:28:20;12.10;99.90
4451;DHT22;2238;50.180;9.230;2023-04-06T09:31:24;12.50;99.90
4451;DHT22;2238;50.180;9.230;2023-04-06T09:34:25;12.30;99.90
4451;DHT22;2238;50.180;9.230;2023-04-06T09:37:27;12.20;99.90
4451;DHT22;2238;50.180;9.230;2023-04-06T09:46:32;12.80;99.90
4451;DHT22;2238;50.180;9.230;2023-04-06T09:52:47;13.00;99.90
4451;DHT22;2238;50.180;9.230;2023-04-06T09:55:52;12.70;99.90
4451;DHT22;2238;50.180;9.230;2023-04-06T09:59:02;12.70;99.90
4451;DHT22;2238;50.180;9.230;2023-04-06T10:02:05;12.40;99.90
4451;DHT22;2238;50.180;9.230;2023-04-06T10:08:41;12.20;99.90
4451;DHT22;2238;50.180;9.230;2023-04-06T10:11:43;12.10;99.90
4451;DHT22;2238;50.180;9.230;2023-04-06T10:17:45;15.60;99.90
4451;DHT22;2238;50.180;9.230;2023-04-06T10:21:01;11.60;99.90
4451;DHT22;2238;50.180;9.230;2023-04-06T10:24:09;11.60;99.90
4451;DHT22;2238;50.180;9.230;2023-04-06T10:30:15;12.00;99.90
4451;DHT22;2238;50.180;9.230;2023-04-06T10:33:20;11.90;99.90
4451;DHT22;2238;50.180;9.230;2023-04-06T10:36:28;11.60;99.90
4451;DHT22;2238;50.180;9.230;2023-04-06T10:39:29;12.10;99.90
4451;DHT22;2238;50.180;9.230;2023-04-06T10:42:38;12.40;99.90
4451;DHT22;2238;50.180;9.230;2023-04-06T10:45:40;12.20;99.90
4451;DHT22;2238;50.180;9.230;2023-04-06T10:48:43;12.20;99.90
4451;DHT22;2238;50.180;9.230;2023-04-06T10:51:44;12.40;99.90
4451;DHT22;2238;50.180;9.230;2023-04-06T10:54:44;12.20;99.90
4451;DHT22;2238;50.180;9.230;2023-04-06T10:57:46;12.30;99.90
4451;DHT22;2238;50.180;9.230;2023-04-06T11:00:48;12.30;99.90
4451;DHT22;2238;50.180;9.230;2023-04-06T11:03:51;12.10;99.90
4451;DHT22;2238;50.180;9.230;2023-04-06T11:06:52;12.70;99.90
4451;DHT22;2238;50.180;9.230;2023-04-06T11:09:54;12.00;99.90
4451;DHT22;2238;50.180;9.230;2023-04-06T11:12:55;12.00;99.90
4451;DHT22;2238;50.180;9.230;2023-04-06T11:15:56;12.10;99.90
4451;DHT22;2238;50.180;9.230;2023-04-06T11:18:58;12.00;99.90
4451;DHT22;2238;50.180;9.230;2023-04-06T11:22:07;12.20;99.90
4451;DHT22;2238;50.180;9.230;2023-04-06T11:25:08;12.70;99.90
4451;DHT22;2238;50.180;9.230;2023-04-06T11:28:08;13.10;99.90
4451;DHT22;2238;50.180;9.230;2023-04-06T11:31:10;12.80;99.90
4451;DHT22;2238;50.180;9.230;2023-04-06T11:34:22;12.70;99.90
4451;DHT22;2238;50.180;9.230;2023-04-06T11:37:26;12.90;99.90
4451;DHT22;2238;50.180;9.230;2023-04-06T11:40:27;13.10;99.90
4451;DHT22;2238;50.180;9.230;2023-04-06T11:43:30;13.60;99.90
4451;DHT22;2238;50.180;9.230;2023-04-06T11:46:31;13.50;99.90
4451;DHT22;2238;50.180;9.230;2023-04-06T11:49:34;13.70;99.90
4451;DHT22;2238;50.180;9.230;2023-04-06T11:52:38;13.30;99.90
4451;DHT22;2238;50.180;9.230;2023-04-06T11:55:39;12.80;99.90
4451;DHT22;2238;50.180;9.230;2023-04-06T11:58:40;13.40;99.90
4451;DHT22;2238;50.180;9.230;2023-04-06T12:01:47;12.90;99.90
4451;DHT22;2238;50.180;9.230;2023-04-06T12:04:48;13.00;99.90
4451;DHT22;2238;50.180;9.230;2023-04-06T12:07:48;13.10;99.90
4451;DHT22;2238;50.180;9.230;2023-04-06T12:10:49;13.70;99.90
4451;DHT22;2238;50.180;9.230;2023-04-06T12:13:49;13.60;99.90
4451;DHT22;2238;50.180;9.230;2023-04-06T12:16:50;13.80;99.90
4451;DHT22;2238;50.180;9.230;2023-04-06T12:19:50;13.60;99.90
4451;DHT22;2238;50.180;9.230;2023-04-06T12:22:51;13.50;99.90
4451;DHT22;2238;50.180;9.230;2023-04-06T12:25:52;13.30;99.90
4451;DHT22;2238;50.180;9.230;2023-04-06T12:28:53;13.30;99.90
4451;DHT22;2238;50.180;9.230;2023-04-06T12:31:53;13.50;99.90
4451;DHT22;2238;50.180;9.230;2023-04-06T12:34:54;13.70;99.90
4451;DHT22;2238;50.180;9.230;2023-04-06T12:37:54;13.40;99.90
4451;DHT22;2238;50.180;9.230;2023-04-06T12:40:55;13.30;99.90
4451;DHT22;2238;50.180;9.230;2023-04-06T12:43:58;12.70;99.90
4451;DHT22;2238;50.180;9.230;2023-04-06T12:46:59;12.60;99.90
4451;DHT22;2238;50.180;9.230;2023-04-06T12:50:01;12.90;99.90
4451;DHT22;2238;50.180;9.230;2023-04-06T12:53:02;13.10;99.90
4451;DHT22;2238;50.180;9.230;2023-04-06T12:56:19;13.40;99.90
4451;DHT22;2238;50.180;9.230;2023-04-06T12:59:21;13.20;99.90
4451;DHT22;2238;50.180;9.230;2023-04-06T13:02:21;13.10;99.90
4451;DHT22;2238;50.180;9.230;2023-04-06T13:05:22;13.00;99.90
4451;DHT22;2238;50.180;9.230;2023-04-06T13:08:23;13.10;99.90
4451;DHT22;2238;50.180;9.230;2023-04-06T13:11:23;13.30;99.90
4451;DHT22;2238;50.180;9.230;2023-04-06T13:14:26;13.00;99.90
4451;DHT22;2238;50.180;9.230;2023-04-06T13:17:27;13.10;99.90
4451;DHT22;2238;50.180;9.230;2023-04-06T13:20:28;13.00;99.90
4451;DHT22;2238;50.180;9.230;2023-04-06T13:23:29;12.90;99.90
4451;DHT22;2238;50.180;9.230;2023-04-06T13:26:29;13.00;99.90
4451;DHT22;2238;50.180;9.230;2023-04-06T13:29:30;13.00;99.90
4451;DHT22;2238;50.180;9.230;2023-04-06T13:32:31;12.80;99.90
4451;DHT22;2238;50.180;9.230;2023-04-06T13:35:32;12.90;99.90
4451;DHT22;2238;50.180;9.230;2023-04-06T13:38:32;12.90;99.90
4451;DHT22;2238;50.180;9.230;2023-04-06T13:41:33;13.00;99.90
4451;DHT22;2238;50.180;9.230;2023-04-06T13:44:34;13.00;99.90
4451;DHT22;2238;50.180;9.230;2023-04-06T13:47:35;12.80;99.90
4451;DHT22;2238;50.180;9.230;2023-04-06T13:50:35;12.90;99.90
4451;DHT22;2238;50.180;9.230;2023-04-06T13:53:36;12.80;99.90
4451;DHT22;2238;50.180;9.230;2023-04-06T13:56:37;12.60;99.90
4451;DHT22;2238;50.180;9.230;2023-04-06T13:59:38;13.90;99.90
4451;DHT22;2238;50.180;9.230;2023-04-06T14:02:40;15.90;99.90
4451;DHT22;2238;50.180;9.230;2023-04-06T14:05:40;15.60;99.90
4451;DHT22;2238;50.180;9.230;2023-04-06T14:08:41;13.10;99.90
4451;DHT22;2238;50.180;9.230;2023-04-06T14:11:41;12.60;99.90
4451;DHT22;2238;50.180;9.230;2023-04-06T14:14:42;15.20;99.90
4451;DHT22;2238;50.180;9.230;2023-04-06T14:17:42;12.60;99.90
4451;DHT22;2238;50.180;9.230;2023-04-06T14:20:43;12.60;99.90
4451;DHT22;2238;50.180;9.230;2023-04-06T14:23:44;14.70;99.90
4451;DHT22;2238;50.180;9.230;2023-04-06T14:26:44;12.90;99.90
4451;DHT22;2238;50.180;9.230;2023-04-06T14:29:45;15.80;99.90
4451;DHT22;2238;50.180;9.230;2023-04-06T14:32:46;13.40;99.90
4451;DHT22;2238;50.180;9.230;2023-04-06T14:35:46;15.60;99.90
4451;DHT22;2238;50.180;9.230;2023-04-06T14:38:47;13.50;99.90
4451;DHT22;2238;50.180;9.230;2023-04-06T14:41:48;13.40;99.90
4451;DHT22;2238;50.180;9.230;2023-04-06T14:44:48;14.00;99.90
4451;DHT22;2238;50.180;9.230;2023-04-06T14:47:49;12.60;99.90
4451;DHT22;2238;50.180;9.230;2023-04-06T14:50:55;13.30;99.90
4451;DHT22;2238;50.180;9.230;2023-04-06T14:53:56;12.70;99.90
4451;DHT22;2238;50.180;9.230;2023-04-06T14:56:57;15.60;99.90
4451;DHT22;2238;50.180;9.230;2023-04-06T14:59:57;12.90;99.90
4451;DHT22;2238;50.180;9.230;2023-04-06T15:02:58;15.00;99.90
4451;DHT22;2238;50.180;9.230;2023-04-06T15:05:59;15.10;99.90
4451;DHT22;2238;50.180;9.230;2023-04-06T15:09:00;12.60;99.90
4451;DHT22;2238;50.180;9.230;2023-04-06T15:12:01;14.60;99.90
4451;DHT22;2238;50.180;9.230;2023-04-06T15:15:02;13.70;99.90
4451;DHT22;2238;50.180;9.230;2023-04-06T15:18:02;12.50;99.90
4451;DHT22;2238;50.180;9.230;2023-04-06T15:21:03;12.40;99.90
4451;DHT22;2238;50.180;9.230;2023-04-06T15:24:04;15.10;99.90
4451;DHT22;2238;50.180;9.230;2023-04-06T15:27:06;12.60;99.90
4451;DHT22;2238;50.180;9.230;2023-04-06T15:30:07;12.60;99.90
4451;DHT22;2238;50.180;9.230;2023-04-06T15:33:08;12.60;99.90
4451;DHT22;2238;50.180;9.230;2023-04-06T15:39:22;13.30;99.90
4451;DHT22;2238;50.180;9.230;2023-04-06T15:42:23;15.50;99.90
4451;DHT22;2238;50.180;9.230;2023-04-06T15:45:23;12.40;99.90
4451;DHT22;2238;50.180;9.230;2023-04-06T15:48:24;12.50;99.90
4451;DHT22;2238;50.180;9.230;2023-04-06T15:51:24;13.60;99.90
4451;DHT22;2238;50.180;9.230;2023-04-06T15:54:25;13.00;99.90
4451;DHT22;2238;50.180;9.230;2023-04-06T15:57:26;12.20;99.90
4451;DHT22;2238;50.180;9.230;2023-04-06T16:00:26;12.20;99.90
4451;DHT22;2238;50.180;9.230;2023-04-06T16:03:28;12.10;99.90
4451;DHT22;2238;50.180;9.230;2023-04-06T16:06:28;13.00;99.90
4451;DHT22;2238;50.180;9.230;2023-04-06T16:09:29;12.10;99.90
4451;DHT22;2238;50.180;9.230;2023-04-06T16:12:30;12.20;99.90
4451;DHT22;2238;50.180;9.230;2023-04-06T16:15:33;12.30;99.90
4451;DHT22;2238;50.180;9.230;2023-04-06T16:18:34;12.40;99.90
4451;DHT22;2238;50.180;9.230;2023-04-06T16:21:35;12.30;99.90
4451;DHT22;2238;50.180;9.230;2023-04-06T16:24:36;12.20;99.90
4451;DHT22;2238;50.180;9.230;2023-04-06T16:27:37;13.50;99.90
4451;DHT22;2238;50.180;9.230;2023-04-06T16:30:38;12.20;99.90
4451;DHT22;2238;50.180;9.230;2023-04-06T16:33:38;12.20;99.90
4451;DHT22;2238;50.180;9.230;2023-04-06T16:36:41;12.70;99.90
4451;DHT22;2238;50.180;9.230;2023-04-06T16:39:42;14.20;99.90
4451;DHT22;2238;50.180;9.230;2023-04-06T16:42:42;14.70;99.90
4451;DHT22;2238;50.180;9.230;2023-04-06T16:45:49;12.10;99.90
4451;DHT22;2238;50.180;9.230;2023-04-06T16:48:51;12.00;99.90
4451;DHT22;2238;50.180;9.230;2023-04-06T16:51:51;12.00;99.90
4451;DHT22;2238;50.180;9.230;2023-04-06T16:54:52;12.00;99.90
4451;DHT22;2238;50.180;9.230;2023-04-06T16:57:56;13.40;99.90
4451;DHT22;2238;50.180;9.230;2023-04-06T17:00:56;11.80;99.90
4451;DHT22;2238;50.180;9.230;2023-04-06T17:04:00;12.80;99.90
4451;DHT22;2238;50.180;9.230;2023-04-06T17:07:01;11.90;99.90
4451;DHT22;2238;50.180;9.230;2023-04-06T17:10:02;12.00;99.90
4451;DHT22;2238;50.180;9.230;2023-04-06T17:13:03;11.60;99.90
4451;DHT22;2238;50.180;9.230;2023-04-06T17:16:03;12.50;99.90
4451;DHT22;2238;50.180;9.230;2023-04-06T17:19:04;11.20;99.90
4451;DHT22;2238;50.180;9.230;2023-04-06T17:22:04;12.30;99.90
4451;DHT22;2238;50.180;9.230;2023-04-06T17:25:06;10.90;99.90
4451;DHT22;2238;50.180;9.230;2023-04-06T17:28:06;11.10;99.90
4451;DHT22;2238;50.180;9.230;2023-04-06T17:31:08;11.10;99.90
4451;DHT22;2238;50.180;9.230;2023-04-06T17:34:13;10.80;99.90
4451;DHT22;2238;50.180;9.230;2023-04-06T17:37:14;10.60;99.90
4451;DHT22;2238;50.180;9.230;2023-04-06T17:40:15;10.50;99.90
4451;DHT22;2238;50.180;9.230;2023-04-06T17:43:16;10.40;99.90
4451;DHT22;2238;50.180;9.230;2023-04-06T17:46:17;11.10;99.90
4451;DHT22;2238;50.180;9.230;2023-04-06T17:49:19;10.60;99.90
4451;DHT22;2238;50.180;9.230;2023-04-06T17:52:20;10.60;99.90
4451;DHT22;2238;50.180;9.230;2023-04-06T17:55:21;10.40;99.90
4451;DHT22;2238;50.180;9.230;2023-04-06T17:58:22;9.90;99.90
4451;DHT22;2238;50.180;9.230;2023-04-06T18:01:23;12.30;99.90
4451;DHT22;2238;50.180;9.230;2023-04-06T18:04:23;11.10;99.90
4451;DHT22;2238;50.180;9.230;2023-04-06T18:07:24;10.80;99.90
4451;DHT22;2238;50.180;9.230;2023-04-06T18:10:25;10.10;99.90
4451;DHT22;2238;50.180;9.230;2023-04-06T18:13:26;10.20;99.90
4451;DHT22;2238;50.180;9.230;2023-04-06T18:16:27;10.00;99.90
4451;DHT22;2238;50.180;9.230;2023-04-06T18:19:27;9.90;99.90
4451;DHT22;2238;50.180;9.230;2023-04-06T18:22:33;9.80;99.90
4451;DHT22;2238;50.180;9.230;2023-04-06T18:25:39;11.00;99.90
4451;DHT22;2238;50.180;9.230;2023-04-06T18:28:40;10.80;99.90
4451;DHT22;2238;50.180;9.230;2023-04-06T18:31:41;10.10;99.90
4451;DHT22;2238;50.180;9.230;2023-04-06T18:34:44;9.90;99.90
4451;DHT22;2238;50.180;9.230;2023-04-06T18:37:47;11.70;99.90
4451;DHT22;2238;50.180;9.230;2023-04-06T18:40:48;9.90;99.90
4451;DHT22;2238;50.180;9.230;2023-04-06T18:43:48;12.50;99.90
4451;DHT22;2238;50.180;9.230;2023-04-06T18:46:49;9.80;99.90
4451;DHT22;2238;50.180;9.230;2023-04-06T18:49:50;9.70;99.90
4451;DHT22;2238;50.180;9.230;2023-04-06T18:52:51;12.70;99.90
4451;DHT22;2238;50.180;9.230;2023-04-06T18:55:51;10.90;99.90
4451;DHT22;2238;50.180;9.230;2023-04-06T18:58:52;9.80;99.90
4451;DHT22;2238;50.180;9.230;2023-04-06T19:01:53;9.80;99.90
4451;DHT22;2238;50.180;9.230;2023-04-06T19:04:53;9.60;99.90
4451;DHT22;2238;50.180;9.230;2023-04-06T19:07:54;11.20;99.90
4451;DHT22;2238;50.180;9.230;2023-04-06T19:10:54;9.30;99.90
4451;DHT22;2238;50.180;9.230;2023-04-06T19:13:55;9.30;99.90
4451;DHT22;2238;50.180;9.230;2023-04-06T19:16:56;10.30;99.90
4451;DHT22;2238;50.180;9.230;2023-04-06T19:19:56;9.60;99.90
4451;DHT22;2238;50.180;9.230;2023-04-06T19:22:57;9.50;99.90
4451;DHT22;2238;50.180;9.230;2023-04-06T19:25:58;9.80;99.90
4451;DHT22;2238;50.180;9.230;2023-04-06T19:29:00;9.90;99.90
4451;DHT22;2238;50.180;9.230;2023-04-06T19:32:00;9.90;99.90
4451;DHT22;2238;50.180;9.230;2023-04-06T19:35:02;9.80;99.90
4451;DHT22;2238;50.180;9.230;2023-04-06T19:38:05;9.30;99.90
4451;DHT22;2238;50.180;9.230;2023-04-06T19:41:07;9.70;99.90
4451;DHT22;2238;50.180;9.230;2023-04-06T19:44:07;9.80;99.90
4451;DHT22;2238;50.180;9.230;2023-04-06T19:47:08;11.10;99.90
4451;DHT22;2238;50.180;9.230;2023-04-06T19:50:11;10.90;99.90
4451;DHT22;2238;50.180;9.230;2023-04-06T19:53:12;9.80;99.90
4451;DHT22;2238;50.180;9.230;2023-04-06T19:56:12;10.80;99.90
4451;DHT22;2238;50.180;9.230;2023-04-06T19:59:13;11.50;99.90
4451;DHT22;2238;50.180;9.230;2023-04-06T20:02:14;10.40;99.90
4451;DHT22;2238;50.180;9.230;2023-04-06T20:05:15;9.70;99.90
4451;DHT22;2238;50.180;9.230;2023-04-06T20:08:15;9.60;99.90
4451;DHT22;2238;50.180;9.230;2023-04-06T20:11:16;9.70;99.90
4451;DHT22;2238;50.180;9.230;2023-04-06T20:14:17;10.10;99.90
4451;DHT22;2238;50.180;9.230;2023-04-06T20:17:18;9.70;99.90
4451;DHT22;2238;50.180;9.230;2023-04-06T20:20:18;9.70;99.90
4451;DHT22;2238;50.180;9.230;2023-04-06T20:23:19;9.80;99.90
4451;DHT22;2238;50.180;9.230;2023-04-06T20:26:20;9.80;99.90
4451;DHT22;2238;50.180;9.230;2023-04-06T20:29:20;9.70;99.90
4451;DHT22;2238;50.180;9.230;2023-04-06T20:32:21;11.50;99.90
4451;DHT22;2238;50.180;9.230;2023-04-06T20:35:22;10.00;99.90